createdAt,value
2017-11-09T00:00:28.174Z,21.20
2017-11-09T00:02:56.401Z,23.23
2017-11-09T00:05:29.671Z,19.67
2017-11-09T00:07:57.119Z,23.83
2017-11-09T00:10:25.342Z,21.67
2017-11-09T00:12:52.797Z,21.27
2017-11-09T00:15:20.263Z,23.30
2017-11-09T00:17:47.735Z,21.43
2017-11-09T00:20:15.179Z,23.00
2017-11-09T00:22:42.634Z,20.87
2017-11-09T00:25:10.076Z,20.80
2017-11-09T00:27:37.549Z,19.87
2017-11-09T00:30:05.000Z,22.03
2017-11-09T00:32:33.202Z,21.07
2017-11-09T00:35:00.635Z,22.97
2017-11-09T00:37:28.863Z,20.43
2017-11-09T00:39:56.309Z,20.07
2017-11-09T00:42:23.762Z,20.47
2017-11-09T00:44:51.215Z,21.47
2017-11-09T00:47:19.500Z,22.67
2017-11-09T00:49:46.937Z,20.97
2017-11-09T00:52:15.167Z,20.23
2017-11-09T00:54:42.631Z,21.97
2017-11-09T00:57:10.075Z,21.87
2017-11-09T00:59:37.543Z,22.23
2017-11-09T01:02:04.998Z,23.60
2017-11-09T01:04:32.435Z,21.07
2017-11-09T01:07:00.657Z,21.37
2017-11-09T01:09:28.113Z,21.80
2017-11-09T01:11:55.570Z,21.63
2017-11-09T01:14:23.785Z,23.07
2017-11-09T01:16:51.246Z,21.27
2017-11-09T01:19:18.706Z,23.67
2017-11-09T01:21:46.159Z,19.73
2017-11-09T01:24:13.613Z,21.83
2017-11-09T01:26:41.039Z,21.27
2017-11-09T01:29:08.499Z,21.43
2017-11-09T01:31:36.749Z,20.53
2017-11-09T01:34:04.187Z,19.67
2017-11-09T01:36:31.646Z,21.53
2017-11-09T01:38:59.104Z,21.33
2017-11-09T01:41:26.549Z,21.63
2017-11-09T01:43:54.026Z,21.97
2017-11-09T01:46:21.448Z,21.70
2017-11-09T01:48:49.666Z,21.17
2017-11-09T01:51:17.117Z,19.90
2017-11-09T01:53:44.574Z,21.30
2017-11-09T01:56:12.017Z,20.87
2017-11-09T01:58:40.224Z,19.97
2017-11-09T02:01:07.694Z,20.77
2017-11-09T02:03:35.146Z,24.70
2017-11-09T02:06:02.591Z,21.17
2017-11-09T02:08:30.830Z,19.27
2017-11-09T02:10:58.274Z,19.70
2017-11-09T02:13:25.718Z,19.53
2017-11-09T02:15:53.176Z,21.80
2017-11-09T02:18:20.653Z,22.10
2017-11-09T02:20:48.105Z,20.17
2017-11-09T02:23:15.564Z,24.43
2017-11-09T02:25:43.028Z,21.03
2017-11-09T02:28:10.487Z,20.07
2017-11-09T02:30:37.935Z,21.33
2017-11-09T02:33:06.154Z,21.07
2017-11-09T02:35:33.602Z,21.37
2017-11-09T02:38:01.056Z,22.60
2017-11-09T02:40:28.493Z,21.23
2017-11-09T02:42:56.713Z,20.57
2017-11-09T02:45:24.170Z,23.03
2017-11-09T02:47:51.627Z,21.73
2017-11-09T02:50:19.069Z,22.63
2017-11-09T02:52:47.309Z,21.77
2017-11-09T02:55:14.782Z,23.23
2017-11-09T02:57:42.240Z,21.57
2017-11-09T03:00:09.687Z,20.27
2017-11-09T03:02:37.155Z,22.47
2017-11-09T03:05:04.601Z,22.50
2017-11-09T03:07:32.818Z,21.23
2017-11-09T03:10:00.271Z,22.17
2017-11-09T03:12:27.706Z,24.17
2017-11-09T03:14:55.167Z,23.20
2017-11-09T03:17:22.628Z,22.47
2017-11-09T03:19:50.090Z,20.40
2017-11-09T03:22:17.537Z,22.20
2017-11-09T03:24:45.011Z,22.47
2017-11-09T03:27:12.448Z,25.70
2017-11-09T03:29:39.922Z,22.00
2017-11-09T03:32:07.371Z,24.47
2017-11-09T03:34:35.605Z,22.13
2017-11-09T03:37:03.049Z,23.97
2017-11-09T03:39:30.495Z,22.57
2017-11-09T03:41:57.954Z,23.50
2017-11-09T03:44:25.422Z,21.73
2017-11-09T03:46:52.861Z,22.57
2017-11-09T03:49:21.083Z,21.90
2017-11-09T03:51:48.525Z,22.77
2017-11-09T03:54:15.992Z,22.57
2017-11-09T03:56:43.424Z,23.57
2017-11-09T03:59:11.642Z,22.07
2017-11-09T04:01:39.088Z,22.87
2017-11-09T04:04:06.546Z,24.77
2017-11-09T04:06:34.001Z,25.73
2017-11-09T04:09:02.230Z,23.07
2017-11-09T04:11:29.671Z,23.60
2017-11-09T04:13:57.144Z,22.73
2017-11-09T04:16:24.611Z,23.00
2017-11-09T04:18:52.052Z,23.80
2017-11-09T04:21:19.505Z,21.97
2017-11-09T04:23:46.975Z,21.83
2017-11-09T04:26:14.422Z,21.70
2017-11-09T04:28:41.891Z,24.57
2017-11-09T04:31:09.353Z,21.77
2017-11-09T04:33:36.805Z,25.40
2017-11-09T04:36:05.024Z,22.70
2017-11-09T04:38:32.462Z,24.07
2017-11-09T04:40:59.916Z,22.40
2017-11-09T04:43:27.375Z,23.00
2017-11-09T04:45:54.822Z,25.30
2017-11-09T04:48:23.034Z,25.80
2017-11-09T04:50:50.484Z,24.07
2017-11-09T04:53:17.921Z,25.70
2017-11-09T04:55:45.390Z,23.90
2017-11-09T04:58:13.603Z,24.60
2017-11-09T05:00:41.077Z,25.03
2017-11-09T05:03:08.527Z,23.13
2017-11-09T05:05:36.004Z,28.00
2017-11-09T05:08:03.437Z,24.80
2017-11-09T05:10:30.870Z,25.73
2017-11-09T05:12:58.337Z,26.97
2017-11-09T05:15:25.792Z,24.53
2017-11-09T05:17:53.262Z,25.93
2017-11-09T05:20:20.702Z,26.23
2017-11-09T05:22:48.164Z,28.93
2017-11-09T05:25:15.630Z,24.77
2017-11-09T05:27:43.085Z,25.50
2017-11-09T05:30:10.553Z,26.30
2017-11-09T05:32:38.002Z,25.70
2017-11-09T05:35:05.463Z,27.67
2017-11-09T05:37:32.921Z,25.07
2017-11-09T05:40:00.372Z,25.00
2017-11-09T05:42:27.826Z,25.30
2017-11-09T05:44:55.295Z,26.70
2017-11-09T05:47:22.750Z,25.90
2017-11-09T05:49:50.198Z,26.60
2017-11-09T05:52:18.427Z,27.57
2017-11-09T05:54:45.881Z,25.57
2017-11-09T05:57:13.321Z,26.17
2017-11-09T05:59:40.780Z,25.80
2017-11-09T06:02:08.229Z,27.17
2017-11-09T06:04:36.427Z,25.40
2017-11-09T06:07:04.645Z,27.40
2017-11-09T06:09:32.085Z,25.33
2017-11-09T06:11:59.541Z,28.70
2017-11-09T06:14:27.003Z,27.77
2017-11-09T06:16:54.453Z,28.23
2017-11-09T06:19:21.882Z,27.23
2017-11-09T06:21:50.084Z,29.67
2017-11-09T06:24:17.537Z,31.40
2017-11-09T06:26:45.739Z,29.90
2017-11-09T06:29:13.181Z,29.90
2017-11-09T06:31:41.397Z,29.07
2017-11-09T06:34:08.840Z,29.70
2017-11-09T06:36:36.283Z,30.03
2017-11-09T06:39:04.493Z,31.50
2017-11-09T06:41:31.954Z,29.00
2017-11-09T06:43:59.428Z,28.97
2017-11-09T06:46:26.869Z,30.67
2017-11-09T06:48:54.322Z,28.13
2017-11-09T06:51:21.778Z,28.13
2017-11-09T06:53:49.997Z,28.53
2017-11-09T06:56:17.456Z,29.70
2017-11-09T06:58:44.892Z,27.93
2017-11-09T07:01:12.351Z,30.13
2017-11-09T07:03:39.828Z,29.40
2017-11-09T07:06:07.299Z,28.77
2017-11-09T07:08:34.752Z,30.77
2017-11-09T07:11:02.198Z,28.90
2017-11-09T07:13:29.642Z,27.70
2017-11-09T07:15:57.865Z,27.80
2017-11-09T07:18:25.330Z,28.30
2017-11-09T07:20:52.790Z,25.87
2017-11-09T07:23:20.247Z,30.50
2017-11-09T07:25:47.707Z,29.17
2017-11-09T07:28:15.146Z,25.50
2017-11-09T07:30:43.360Z,26.47
2017-11-09T07:33:10.814Z,31.20
2017-11-09T07:35:38.276Z,28.33
2017-11-09T07:38:05.744Z,29.97
2017-11-09T07:40:33.185Z,31.07
2017-11-09T07:43:00.657Z,26.30
2017-11-09T07:45:28.122Z,29.43
2017-11-09T07:47:56.369Z,26.83
2017-11-09T07:50:23.817Z,29.67
2017-11-09T07:52:51.262Z,35.43
2017-11-09T07:55:18.734Z,31.33
2017-11-09T07:57:46.186Z,31.93
2017-11-09T08:00:13.652Z,30.13
2017-11-09T08:02:41.100Z,31.77
2017-11-09T08:05:08.548Z,34.95
2017-11-09T08:07:36.004Z,33.17
2017-11-09T08:10:03.461Z,30.23
2017-11-09T08:12:30.900Z,33.10
2017-11-09T08:14:59.110Z,32.50
2017-11-09T08:17:26.557Z,29.97
2017-11-09T08:19:54.799Z,31.37
2017-11-09T08:22:22.244Z,31.50
2017-11-09T08:24:51.825Z,33.77
2017-11-09T08:27:22.013Z,31.07
2017-11-09T08:29:49.880Z,30.77
2017-11-09T08:32:19.156Z,33.83
2017-11-09T08:34:46.624Z,31.43
2017-11-09T08:37:14.077Z,35.13
2017-11-09T08:39:41.573Z,31.43
2017-11-09T08:42:09.028Z,30.67
2017-11-09T08:44:36.494Z,30.13
2017-11-09T08:47:03.953Z,32.33
2017-11-09T08:49:31.457Z,30.47
2017-11-09T08:51:59.651Z,34.00
2017-11-09T08:54:27.112Z,33.83
2017-11-09T08:56:54.572Z,27.00
2017-11-09T08:59:22.017Z,36.03
2017-11-09T09:01:50.249Z,29.80
2017-11-09T09:04:17.704Z,36.50
2017-11-09T09:06:45.208Z,32.78
2017-11-09T09:09:12.633Z,34.47
2017-11-09T09:11:40.086Z,31.60
2017-11-09T09:14:07.548Z,34.30
2017-11-09T09:16:35.027Z,33.33
2017-11-09T09:19:02.465Z,32.03
2017-11-09T09:21:44.792Z,30.43
2017-11-09T09:24:13.211Z,34.53
2017-11-09T09:26:45.067Z,36.03
2017-11-09T09:29:18.848Z,34.47
2017-11-09T09:31:46.292Z,34.07
2017-11-09T09:34:18.286Z,32.53
2017-11-09T09:36:59.347Z,33.33
2017-11-09T09:39:31.569Z,34.33
2017-11-09T09:41:59.776Z,35.53
2017-11-09T09:44:27.216Z,35.20
2017-11-09T09:46:54.659Z,35.13
2017-11-09T09:49:22.878Z,36.60
2017-11-09T09:51:50.332Z,33.97
2017-11-09T09:54:17.764Z,33.83
2017-11-09T09:56:46.277Z,33.27
2017-11-09T09:59:13.702Z,35.83
2017-11-09T10:01:41.182Z,31.97
2017-11-09T10:04:09.395Z,35.00
2017-11-09T10:06:38.703Z,35.67
2017-11-09T10:09:06.911Z,42.83
2017-11-09T10:11:34.363Z,37.33
2017-11-09T10:14:01.823Z,38.37
2017-11-09T10:16:29.273Z,34.30
2017-11-09T10:18:56.739Z,40.20
2017-11-09T10:21:24.182Z,38.73
2017-11-09T10:23:51.626Z,39.97
2017-11-09T10:26:19.091Z,35.57
2017-11-09T10:28:47.309Z,39.63
2017-11-09T10:31:14.784Z,34.97
2017-11-09T10:33:42.231Z,37.03
2017-11-09T10:36:09.706Z,37.20
2017-11-09T10:38:37.154Z,35.57
2017-11-09T10:41:04.597Z,38.80
2017-11-09T10:43:32.073Z,35.90
2017-11-09T10:45:59.508Z,36.50
2017-11-09T10:48:27.708Z,36.13
2017-11-09T10:50:55.151Z,33.17
2017-11-09T10:53:22.604Z,32.43
2017-11-09T10:55:50.824Z,35.17
2017-11-09T10:58:18.284Z,36.17
2017-11-09T11:00:45.736Z,32.93
2017-11-09T11:03:13.188Z,32.23
2017-11-09T11:05:40.642Z,32.90
2017-11-09T11:08:08.083Z,27.37
2017-11-09T11:10:36.318Z,27.70
2017-11-09T11:13:03.777Z,26.60
2017-11-09T11:15:31.224Z,27.17
2017-11-09T11:17:58.671Z,22.97
2017-11-09T11:20:26.366Z,22.17
2017-11-09T11:22:53.810Z,20.77
2017-11-09T11:25:21.262Z,21.33
2017-11-09T11:27:49.465Z,18.83
2017-11-09T11:30:16.907Z,15.87
2017-11-09T11:32:44.363Z,18.90
2017-11-09T11:35:12.585Z,17.40
2017-11-09T11:37:40.038Z,14.53
2017-11-09T11:40:08.268Z,15.00
2017-11-09T11:42:35.702Z,15.17
2017-11-09T11:45:03.234Z,12.07
2017-11-09T11:47:33.159Z,11.43
2017-11-09T11:50:00.622Z,12.73
2017-11-09T11:52:28.071Z,11.63
2017-11-09T11:54:55.516Z,9.33
2017-11-09T11:57:23.735Z,8.37
2017-11-09T11:59:51.193Z,8.37
2017-11-09T12:02:18.644Z,10.07
2017-11-09T12:04:46.088Z,9.60
2017-11-09T12:07:13.520Z,8.33
2017-11-09T12:09:40.982Z,8.50
2017-11-09T12:12:14.236Z,7.33
2017-11-09T12:14:42.176Z,6.17
2017-11-09T12:17:10.394Z,5.83
2017-11-09T12:19:37.844Z,6.23
2017-11-09T12:22:05.307Z,5.37
2017-11-09T12:24:32.753Z,4.27
2017-11-09T12:27:00.962Z,4.60
2017-11-09T12:29:28.413Z,4.40
2017-11-09T12:31:55.860Z,3.50
2017-11-09T12:34:23.308Z,5.53
2017-11-09T12:36:51.526Z,3.60
2017-11-09T12:39:18.987Z,3.33
2017-11-09T12:41:46.432Z,3.67
2017-11-09T12:44:15.508Z,4.27
2017-11-09T12:47:14.923Z,3.57
2017-11-09T13:01:32.558Z,3.13
2017-11-09T13:04:00.761Z,3.73
2017-11-09T13:06:28.196Z,3.80
2017-11-09T13:08:56.408Z,3.67
2017-11-09T13:11:23.874Z,3.67
2017-11-09T13:13:51.304Z,4.23
2017-11-09T13:16:19.536Z,2.67
2017-11-09T13:18:46.990Z,2.23
2017-11-09T13:21:14.422Z,2.57
2017-11-09T13:23:42.639Z,2.50
2017-11-09T13:26:10.071Z,2.50
2017-11-09T13:28:37.517Z,5.07
2017-11-09T13:31:05.742Z,3.80
2017-11-09T13:33:33.196Z,2.53
2017-11-09T13:36:00.629Z,3.07
2017-11-09T13:38:28.867Z,3.33
2017-11-09T13:40:56.468Z,5.13
2017-11-09T13:43:25.435Z,3.03
2017-11-09T13:45:52.868Z,3.33
2017-11-09T13:48:20.317Z,3.87
2017-11-09T13:50:48.039Z,3.47
2017-11-09T13:53:17.433Z,3.33
2017-11-09T13:55:46.306Z,3.40
2017-11-09T13:58:13.788Z,4.23
2017-11-09T14:00:41.287Z,3.83
2017-11-09T14:03:10.598Z,3.53
2017-11-09T14:05:39.185Z,4.60
2017-11-09T14:08:06.655Z,2.00
2017-11-09T14:10:34.873Z,2.67
2017-11-09T14:13:02.493Z,2.83
2017-11-09T14:15:33.027Z,3.67
2017-11-09T14:18:01.514Z,2.93
2017-11-09T14:20:30.725Z,3.80
2017-11-09T14:22:58.227Z,2.30
2017-11-09T14:25:26.056Z,2.63
2017-11-09T14:27:54.776Z,2.27
2017-11-09T14:30:23.168Z,2.43
2017-11-09T14:32:50.609Z,3.37
2017-11-09T14:35:18.076Z,2.73
2017-11-09T14:37:45.517Z,2.83
2017-11-09T14:40:12.983Z,2.87
2017-11-09T14:42:40.442Z,3.57
2017-11-09T14:45:08.680Z,3.13
2017-11-09T14:47:36.149Z,2.73
2017-11-09T14:50:04.105Z,3.03
2017-11-09T14:52:32.091Z,2.10
2017-11-09T14:54:59.823Z,3.83
2017-11-09T14:57:28.867Z,3.43
2017-11-09T14:59:57.099Z,3.63
2017-11-09T15:02:24.570Z,3.00
2017-11-09T15:04:53.206Z,4.27
2017-11-09T15:07:20.691Z,4.87
2017-11-09T15:09:48.309Z,3.77
2017-11-09T15:12:15.855Z,3.93
2017-11-09T15:14:43.494Z,4.00
2017-11-09T15:17:11.708Z,3.93
2017-11-09T15:19:39.188Z,5.00
2017-11-09T15:22:06.631Z,3.57
2017-11-09T15:24:34.132Z,3.50
2017-11-09T15:27:01.608Z,2.77
2017-11-09T15:29:29.058Z,2.70
2017-11-09T15:31:56.519Z,4.33
2017-11-09T15:34:23.972Z,3.10
2017-11-09T15:36:51.427Z,4.07
2017-11-09T15:39:18.899Z,3.00
2017-11-09T15:41:46.372Z,3.67
2017-11-09T15:44:13.837Z,4.77
2017-11-09T15:46:41.273Z,3.67
2017-11-09T15:49:08.740Z,3.40
2017-11-09T15:51:36.186Z,2.90
2017-11-09T15:54:03.641Z,4.53
2017-11-09T15:56:31.127Z,5.10
2017-11-09T15:58:58.574Z,3.73
2017-11-09T16:01:26.026Z,4.03
2017-11-09T16:03:53.472Z,3.17
2017-11-09T16:06:20.932Z,3.40
2017-11-09T16:08:49.153Z,3.43
2017-11-09T16:11:16.596Z,3.70
2017-11-09T16:13:44.045Z,3.90
2017-11-09T16:16:11.473Z,4.20
2017-11-09T16:18:38.916Z,3.80
2017-11-09T16:21:06.349Z,4.10
2017-11-09T16:23:33.817Z,4.73
2017-11-09T16:26:01.277Z,4.43
2017-11-09T16:28:28.730Z,4.50
2017-11-09T16:30:56.225Z,5.17
2017-11-09T16:33:23.677Z,3.53
2017-11-09T16:35:51.143Z,4.10
2017-11-09T16:38:18.597Z,4.67
2017-11-09T16:40:46.041Z,4.20
2017-11-09T16:43:13.505Z,4.30
2017-11-09T16:45:40.961Z,3.40
2017-11-09T16:48:08.409Z,5.87
2017-11-09T16:50:36.644Z,4.90
2017-11-09T16:53:07.040Z,4.23
2017-11-09T16:55:34.513Z,4.70
2017-11-09T16:58:02.757Z,3.77
2017-11-09T17:00:30.973Z,4.33
2017-11-09T17:02:58.433Z,4.20
2017-11-09T17:05:25.904Z,4.87
2017-11-09T17:07:53.348Z,5.37
2017-11-09T17:10:20.821Z,5.20
2017-11-09T17:12:49.058Z,5.30
2017-11-09T17:15:20.101Z,5.07
2017-11-09T17:17:48.373Z,5.13
2017-11-09T17:20:15.866Z,4.97
2017-11-09T17:22:43.310Z,5.43
2017-11-09T17:25:10.793Z,5.03
2017-11-09T17:27:38.996Z,5.40
2017-11-09T17:30:06.469Z,5.47
2017-11-09T17:32:33.945Z,5.03
2017-11-09T17:35:01.402Z,4.70
2017-11-09T17:37:29.775Z,5.90
2017-11-09T17:39:57.230Z,5.00
2017-11-09T17:42:26.540Z,5.50
2017-11-09T17:44:53.980Z,5.10
2017-11-09T17:47:21.428Z,5.33
2017-11-09T17:49:49.636Z,5.30
2017-11-09T17:52:17.093Z,5.73
2017-11-09T17:54:44.543Z,5.80
2017-11-09T17:57:12.047Z,5.70
2017-11-09T17:59:41.459Z,5.80
2017-11-09T18:02:08.901Z,5.37
2017-11-09T18:04:36.363Z,5.83
2017-11-09T18:07:03.814Z,5.83
2017-11-09T18:09:31.276Z,5.27
2017-11-09T18:11:58.731Z,6.10
2017-11-09T18:14:26.190Z,5.10
2017-11-09T18:16:53.643Z,5.00
2017-11-09T18:19:21.137Z,5.60
2017-11-09T18:21:48.594Z,6.03
2017-11-09T18:24:16.973Z,6.00
2017-11-09T18:26:44.423Z,5.60
2017-11-09T18:29:11.885Z,5.60
2017-11-09T18:31:42.102Z,5.97
2017-11-09T18:34:10.308Z,5.93
2017-11-09T18:36:37.765Z,5.47
2017-11-09T18:39:05.199Z,5.57
2017-11-09T18:41:33.397Z,5.57
2017-11-09T18:44:00.850Z,5.40
2017-11-09T18:46:29.056Z,6.50
2017-11-09T18:48:56.509Z,6.60
2017-11-09T18:51:23.944Z,6.23
2017-11-09T18:53:52.158Z,5.63
2017-11-09T18:56:19.625Z,6.07
2017-11-09T18:58:47.077Z,5.40
2017-11-09T19:01:14.536Z,5.77
2017-11-09T19:03:42.003Z,6.40
2017-11-09T19:06:09.439Z,7.00
2017-11-09T19:08:37.634Z,5.83
2017-11-09T19:11:05.102Z,6.27
2017-11-09T19:13:32.533Z,6.10
2017-11-09T19:16:00.736Z,6.00
2017-11-09T19:18:28.219Z,6.63
2017-11-09T19:20:55.649Z,6.13
2017-11-09T19:23:23.869Z,5.90
2017-11-09T19:25:51.325Z,5.70
2017-11-09T19:28:18.801Z,6.40
2017-11-09T19:30:47.021Z,6.20
2017-11-09T19:33:14.493Z,6.70
2017-11-09T19:35:42.697Z,6.40
2017-11-09T19:38:10.146Z,5.97
2017-11-09T19:40:37.621Z,6.13
2017-11-09T19:43:05.058Z,6.00
2017-11-09T19:45:33.305Z,6.70
2017-11-09T19:48:00.768Z,6.13
2017-11-09T19:50:28.216Z,5.77
2017-11-09T19:52:55.842Z,6.27
2017-11-09T19:55:24.054Z,6.40
2017-11-09T19:57:53.261Z,6.30
2017-11-09T20:00:20.733Z,6.13
2017-11-09T20:02:48.173Z,6.37
2017-11-09T20:05:15.627Z,6.47
2017-11-09T20:07:43.088Z,7.07
2017-11-09T20:10:11.278Z,6.83
2017-11-09T20:12:38.737Z,7.17
2017-11-09T20:15:06.188Z,7.00
2017-11-09T20:17:34.430Z,6.27
2017-11-09T20:20:01.829Z,6.90
2017-11-09T20:22:29.272Z,6.60
2017-11-09T20:24:57.504Z,6.70
2017-11-09T20:27:24.970Z,6.90
2017-11-09T20:29:52.416Z,6.53
2017-11-09T20:32:19.860Z,7.27
2017-11-09T20:34:47.310Z,6.10
2017-11-09T20:37:15.523Z,6.70
2017-11-09T20:39:43.737Z,6.80
2017-11-09T20:42:11.177Z,7.00
2017-11-09T20:44:38.656Z,7.43
2017-11-09T20:47:06.118Z,6.63
2017-11-09T20:49:33.583Z,7.00
2017-11-09T20:52:01.046Z,6.50
2017-11-09T20:54:28.521Z,6.90
2017-11-09T20:56:56.761Z,7.17
2017-11-09T20:59:24.197Z,7.27
2017-11-09T21:01:51.665Z,6.77
2017-11-09T21:04:19.102Z,6.70
2017-11-09T21:06:47.332Z,6.57
2017-11-09T21:09:14.810Z,7.00
2017-11-09T21:11:42.246Z,7.10
2017-11-09T21:14:09.700Z,6.90
2017-11-09T21:16:37.131Z,6.90
2017-11-09T21:19:04.572Z,7.60
2017-11-09T21:21:32.077Z,7.70
2017-11-09T21:24:01.113Z,7.63
2017-11-09T21:26:28.728Z,8.10
2017-11-09T21:28:56.161Z,8.57
2017-11-09T21:31:23.630Z,9.77
2017-11-09T21:33:51.206Z,8.40
2017-11-09T21:36:18.658Z,8.23
2017-11-09T21:38:46.119Z,8.43
2017-11-09T21:41:13.799Z,8.57
2017-11-09T21:43:41.273Z,8.90
2017-11-09T21:46:08.733Z,8.17
2017-11-09T21:48:36.193Z,7.83
2017-11-09T21:51:03.637Z,8.63
2017-11-09T21:53:31.091Z,8.53
2017-11-09T21:55:58.570Z,8.23
2017-11-09T21:58:26.026Z,8.27
2017-11-09T22:00:53.477Z,8.43
2017-11-09T22:03:20.929Z,7.77
2017-11-09T22:05:48.372Z,8.70
2017-11-09T22:08:15.830Z,8.47
2017-11-09T22:10:43.259Z,7.40
2017-11-09T22:13:11.500Z,7.70
2017-11-09T22:15:38.936Z,7.50
2017-11-09T22:18:06.409Z,9.33
2017-11-09T22:20:33.883Z,7.83
2017-11-09T22:23:01.352Z,7.73
2017-11-09T22:25:28.785Z,7.70
2017-11-09T22:27:56.265Z,8.23
2017-11-09T22:30:25.074Z,6.87
2017-11-09T22:32:52.553Z,8.90
2017-11-09T22:35:21.759Z,7.17
2017-11-09T22:37:49.314Z,7.47
2017-11-09T22:40:17.467Z,7.33
2017-11-09T22:42:47.676Z,6.87
2017-11-09T22:45:15.152Z,7.37
2017-11-09T22:47:43.352Z,7.10
2017-11-09T22:50:10.819Z,7.30
2017-11-09T22:52:38.278Z,6.70
2017-11-09T22:55:05.732Z,6.33
2017-11-09T22:57:33.177Z,5.67
2017-11-09T23:00:00.626Z,6.00
2017-11-09T23:02:28.076Z,6.20
2017-11-09T23:04:56.281Z,6.50
2017-11-09T23:07:24.508Z,6.70
2017-11-09T23:09:51.945Z,6.70
2017-11-09T23:12:19.407Z,6.23
2017-11-09T23:14:46.849Z,6.93
2017-11-09T23:17:14.285Z,6.70
2017-11-09T23:19:42.504Z,5.80
2017-11-09T23:22:09.957Z,5.77
2017-11-09T23:24:37.383Z,5.73
2017-11-09T23:27:05.597Z,6.43
2017-11-09T23:29:33.825Z,6.27
2017-11-09T23:32:02.154Z,6.57
2017-11-09T23:34:29.598Z,5.73
2017-11-09T23:36:57.806Z,6.70
2017-11-09T23:39:25.256Z,7.77
2017-11-09T23:41:52.694Z,6.37
2017-11-09T23:44:20.901Z,7.20
2017-11-09T23:46:48.373Z,6.33
2017-11-09T23:49:15.818Z,6.07
2017-11-09T23:51:43.250Z,6.07
2017-11-09T23:54:11.490Z,5.90
2017-11-09T23:56:38.938Z,6.53
2017-11-09T23:59:06.389Z,5.57
